sensor_id;sensor_type;location;lat;lon;timestamp;P1;durP1;ratioP1;P2;durP2;ratioP2
61471;SDS011;47337;54.068;12.114;2023-04-06T00:01:09;21.80;;;10.03;;
61471;SDS011;47337;54.068;12.114;2023-04-06T00:03:37;16.00;;;9.00;;
61471;SDS011;47337;54.068;12.114;2023-04-06T00:06:05;18.02;;;8.82;;
61471;SDS011;47337;54.068;12.114;2023-04-06T00:08:30;17.30;;;8.80;;
61471;SDS011;47337;54.068;12.114;2023-04-06T00:10:58;20.80;;;10.40;;
61471;SDS011;47337;54.068;12.114;2023-04-06T00:13:24;14.90;;;8.98;;
61471;SDS011;47337;54.068;12.114;2023-04-06T00:15:52;20.02;;;10.20;;
61471;SDS011;47337;54.068;12.114;2023-04-06T00:18:20;16.73;;;8.70;;
61471;SDS011;47337;54.068;12.114;2023-04-06T00:20:45;18.52;;;9.20;;
61471;SDS011;47337;54.068;12.114;2023-04-06T00:23:11;18.75;;;9.55;;
61471;SDS011;47337;54.068;12.114;2023-04-06T00:25:36;19.40;;;9.30;;
61471;SDS011;47337;54.068;12.114;2023-04-06T00:28:04;17.23;;;9.10;;
61471;SDS011;47337;54.068;12.114;2023-04-06T00:30:29;19.63;;;8.95;;
61471;SDS011;47337;54.068;12.114;2023-04-06T00:32:55;17.48;;;9.43;;
61471;SDS011;47337;54.068;12.114;2023-04-06T00:35:20;18.27;;;8.70;;
61471;SDS011;47337;54.068;12.114;2023-04-06T00:37:48;24.42;;;10.02;;
61471;SDS011;47337;54.068;12.114;2023-04-06T00:40:14;17.63;;;9.23;;
61471;SDS011;47337;54.068;12.114;2023-04-06T00:42:40;24.52;;;10.65;;
61471;SDS011;47337;54.068;12.114;2023-04-06T00:45:06;17.77;;;9.88;;
61471;SDS011;47337;54.068;12.114;2023-04-06T00:47:34;21.60;;;10.05;;
61471;SDS011;47337;54.068;12.114;2023-04-06T00:50:00;21.00;;;10.13;;
61471;SDS011;47337;54.068;12.114;2023-04-06T00:52:28;19.70;;;10.57;;
61471;SDS011;47337;54.068;12.114;2023-04-06T00:54:53;18.05;;;9.40;;
61471;SDS011;47337;54.068;12.114;2023-04-06T00:57:19;19.48;;;9.60;;
61471;SDS011;47337;54.068;12.114;2023-04-06T00:59:47;18.35;;;9.88;;
61471;SDS011;47337;54.068;12.114;2023-04-06T01:02:13;23.17;;;9.38;;
61471;SDS011;47337;54.068;12.114;2023-04-06T01:04:38;26.30;;;12.00;;
61471;SDS011;47337;54.068;12.114;2023-04-06T01:07:04;23.25;;;10.35;;
61471;SDS011;47337;54.068;12.114;2023-04-06T01:09:34;22.83;;;10.32;;
61471;SDS011;47337;54.068;12.114;2023-04-06T01:12:02;23.15;;;11.70;;
61471;SDS011;47337;54.068;12.114;2023-04-06T01:14:28;21.17;;;9.93;;
61471;SDS011;47337;54.068;12.114;2023-04-06T01:16:59;22.02;;;9.68;;
61471;SDS011;47337;54.068;12.114;2023-04-06T01:19:25;18.17;;;10.48;;
61471;SDS011;47337;54.068;12.114;2023-04-06T01:21:53;21.30;;;11.07;;
61471;SDS011;47337;54.068;12.114;2023-04-06T01:24:21;17.73;;;10.48;;
61471;SDS011;47337;54.068;12.114;2023-04-06T01:26:47;20.80;;;9.73;;
61471;SDS011;47337;54.068;12.114;2023-04-06T01:29:12;22.98;;;10.18;;
61471;SDS011;47337;54.068;12.114;2023-04-06T01:31:38;20.63;;;10.77;;
61471;SDS011;47337;54.068;12.114;2023-04-06T01:34:06;18.92;;;10.63;;
61471;SDS011;47337;54.068;12.114;2023-04-06T01:36:35;24.33;;;10.65;;
61471;SDS011;47337;54.068;12.114;2023-04-06T01:39:02;19.80;;;9.95;;
61471;SDS011;47337;54.068;12.114;2023-04-06T01:41:28;18.33;;;10.30;;
61471;SDS011;47337;54.068;12.114;2023-04-06T01:43:53;26.48;;;10.73;;
61471;SDS011;47337;54.068;12.114;2023-04-06T01:46:22;26.70;;;11.20;;
61471;SDS011;47337;54.068;12.114;2023-04-06T01:48:50;23.30;;;10.73;;
61471;SDS011;47337;54.068;12.114;2023-04-06T01:51:18;21.58;;;10.27;;
61471;SDS011;47337;54.068;12.114;2023-04-06T01:53:45;20.90;;;10.07;;
61471;SDS011;47337;54.068;12.114;2023-04-06T01:56:11;19.92;;;10.00;;
61471;SDS011;47337;54.068;12.114;2023-04-06T01:58:36;23.38;;;10.93;;
61471;SDS011;47337;54.068;12.114;2023-04-06T02:01:02;22.77;;;10.88;;
61471;SDS011;47337;54.068;12.114;2023-04-06T02:03:27;23.77;;;9.93;;
61471;SDS011;47337;54.068;12.114;2023-04-06T02:05:52;30.20;;;10.77;;
61471;SDS011;47337;54.068;12.114;2023-04-06T02:08:18;21.48;;;11.10;;
61471;SDS011;47337;54.068;12.114;2023-04-06T02:10:43;20.35;;;10.75;;
61471;SDS011;47337;54.068;12.114;2023-04-06T02:13:09;24.70;;;11.75;;
61471;SDS011;47337;54.068;12.114;2023-04-06T02:15:37;23.30;;;10.57;;
61471;SDS011;47337;54.068;12.114;2023-04-06T02:18:04;21.50;;;9.95;;
61471;SDS011;47337;54.068;12.114;2023-04-06T02:20:30;21.20;;;10.10;;
61471;SDS011;47337;54.068;12.114;2023-04-06T02:22:56;21.35;;;11.18;;
61471;SDS011;47337;54.068;12.114;2023-04-06T02:25:24;20.90;;;10.50;;
61471;SDS011;47337;54.068;12.114;2023-04-06T02:27:50;19.55;;;9.80;;
61471;SDS011;47337;54.068;12.114;2023-04-06T02:30:15;22.88;;;10.75;;
61471;SDS011;47337;54.068;12.114;2023-04-06T02:32:41;22.65;;;11.60;;
61471;SDS011;47337;54.068;12.114;2023-04-06T02:35:08;22.67;;;9.82;;
61471;SDS011;47337;54.068;12.114;2023-04-06T02:37:36;18.88;;;10.18;;
61471;SDS011;47337;54.068;12.114;2023-04-06T02:40:02;18.77;;;9.95;;
61471;SDS011;47337;54.068;12.114;2023-04-06T02:42:27;23.23;;;9.70;;
61471;SDS011;47337;54.068;12.114;2023-04-06T02:44:53;19.00;;;9.98;;
61471;SDS011;47337;54.068;12.114;2023-04-06T02:47:18;19.65;;;10.70;;
61471;SDS011;47337;54.068;12.114;2023-04-06T02:49:46;19.42;;;10.40;;
61471;SDS011;47337;54.068;12.114;2023-04-06T02:52:11;19.20;;;10.20;;
61471;SDS011;47337;54.068;12.114;2023-04-06T02:54:40;21.00;;;9.68;;
61471;SDS011;47337;54.068;12.114;2023-04-06T02:57:05;22.73;;;10.23;;
61471;SDS011;47337;54.068;12.114;2023-04-06T02:59:30;19.63;;;10.32;;
61471;SDS011;47337;54.068;12.114;2023-04-06T03:01:58;20.50;;;11.13;;
61471;SDS011;47337;54.068;12.114;2023-04-06T03:04:26;20.88;;;10.40;;
61471;SDS011;47337;54.068;12.114;2023-04-06T03:06:54;23.55;;;10.63;;
61471;SDS011;47337;54.068;12.114;2023-04-06T03:09:22;20.63;;;9.65;;
61471;SDS011;47337;54.068;12.114;2023-04-06T03:11:47;24.58;;;11.23;;
61471;SDS011;47337;54.068;12.114;2023-04-06T03:14:13;22.95;;;10.88;;
61471;SDS011;47337;54.068;12.114;2023-04-06T03:16:38;25.30;;;11.00;;
61471;SDS011;47337;54.068;12.114;2023-04-06T03:19:04;21.42;;;11.35;;
61471;SDS011;47337;54.068;12.114;2023-04-06T03:21:29;21.50;;;11.25;;
61471;SDS011;47337;54.068;12.114;2023-04-06T03:23:55;20.67;;;10.00;;
61471;SDS011;47337;54.068;12.114;2023-04-06T03:26:23;21.00;;;10.65;;
61471;SDS011;47337;54.068;12.114;2023-04-06T03:28:48;21.52;;;10.45;;
61471;SDS011;47337;54.068;12.114;2023-04-06T03:31:16;19.75;;;9.93;;
61471;SDS011;47337;54.068;12.114;2023-04-06T03:33:44;20.85;;;10.60;;
61471;SDS011;47337;54.068;12.114;2023-04-06T03:36:14;23.08;;;11.90;;
61471;SDS011;47337;54.068;12.114;2023-04-06T03:38:40;22.33;;;11.55;;
61471;SDS011;47337;54.068;12.114;2023-04-06T03:41:05;24.25;;;10.82;;
61471;SDS011;47337;54.068;12.114;2023-04-06T03:43:31;22.02;;;11.07;;
61471;SDS011;47337;54.068;12.114;2023-04-06T03:45:59;27.00;;;11.63;;
61471;SDS011;47337;54.068;12.114;2023-04-06T03:48:24;24.10;;;11.60;;
61471;SDS011;47337;54.068;12.114;2023-04-06T03:50:50;21.67;;;10.88;;
61471;SDS011;47337;54.068;12.114;2023-04-06T03:53:15;22.98;;;11.32;;
61471;SDS011;47337;54.068;12.114;2023-04-06T03:55:43;22.38;;;11.27;;
61471;SDS011;47337;54.068;12.114;2023-04-06T03:58:08;19.92;;;10.75;;
61471;SDS011;47337;54.068;12.114;2023-04-06T04:00:34;23.58;;;12.35;;
61471;SDS011;47337;54.068;12.114;2023-04-06T04:02:59;24.77;;;11.52;;
61471;SDS011;47337;54.068;12.114;2023-04-06T04:05:29;22.52;;;10.88;;
61471;SDS011;47337;54.068;12.114;2023-04-06T04:07:55;21.65;;;11.25;;
61471;SDS011;47337;54.068;12.114;2023-04-06T04:10:20;26.58;;;11.70;;
61471;SDS011;47337;54.068;12.114;2023-04-06T04:12:46;24.92;;;12.15;;
61471;SDS011;47337;54.068;12.114;2023-04-06T04:15:13;30.48;;;11.98;;
61471;SDS011;47337;54.068;12.114;2023-04-06T04:17:39;25.80;;;11.70;;
61471;SDS011;47337;54.068;12.114;2023-04-06T04:20:05;22.75;;;10.90;;
61471;SDS011;47337;54.068;12.114;2023-04-06T04:22:33;25.65;;;11.52;;
61471;SDS011;47337;54.068;12.114;2023-04-06T04:24:59;22.25;;;11.65;;
61471;SDS011;47337;54.068;12.114;2023-04-06T04:27:24;26.08;;;12.63;;
61471;SDS011;47337;54.068;12.114;2023-04-06T04:29:52;25.15;;;11.52;;
61471;SDS011;47337;54.068;12.114;2023-04-06T04:32:20;23.65;;;12.20;;
61471;SDS011;47337;54.068;12.114;2023-04-06T04:34:46;26.15;;;12.85;;
61471;SDS011;47337;54.068;12.114;2023-04-06T04:37:12;28.88;;;12.73;;
61471;SDS011;47337;54.068;12.114;2023-04-06T04:39:37;25.33;;;11.98;;
61471;SDS011;47337;54.068;12.114;2023-04-06T04:42:02;29.88;;;13.27;;
61471;SDS011;47337;54.068;12.114;2023-04-06T04:44:30;24.05;;;11.52;;
61471;SDS011;47337;54.068;12.114;2023-04-06T04:46:55;28.23;;;12.85;;
61471;SDS011;47337;54.068;12.114;2023-04-06T04:49:21;25.23;;;11.98;;
61471;SDS011;47337;54.068;12.114;2023-04-06T04:51:51;27.08;;;12.80;;
61471;SDS011;47337;54.068;12.114;2023-04-06T04:54:17;28.42;;;13.40;;
61471;SDS011;47337;54.068;12.114;2023-04-06T04:56:45;29.00;;;13.85;;
61471;SDS011;47337;54.068;12.114;2023-04-06T04:59:11;28.77;;;13.50;;
61471;SDS011;47337;54.068;12.114;2023-04-06T05:01:36;32.50;;;14.45;;
61471;SDS011;47337;54.068;12.114;2023-04-06T05:04:02;29.52;;;14.18;;
61471;SDS011;47337;54.068;12.114;2023-04-06T05:06:27;28.73;;;15.07;;
61471;SDS011;47337;54.068;12.114;2023-04-06T05:08:52;29.50;;;14.10;;
61471;SDS011;47337;54.068;12.114;2023-04-06T05:11:18;28.40;;;13.70;;
61471;SDS011;47337;54.068;12.114;2023-04-06T05:13:46;30.95;;;14.50;;
61471;SDS011;47337;54.068;12.114;2023-04-06T05:16:11;28.88;;;15.48;;
61471;SDS011;47337;54.068;12.114;2023-04-06T05:18:39;27.80;;;13.50;;
61471;SDS011;47337;54.068;12.114;2023-04-06T05:21:04;29.33;;;14.02;;
61471;SDS011;47337;54.068;12.114;2023-04-06T05:23:30;26.15;;;14.18;;
61471;SDS011;47337;54.068;12.114;2023-04-06T05:25:55;30.65;;;14.88;;
61471;SDS011;47337;54.068;12.114;2023-04-06T05:28:21;31.50;;;14.95;;
61471;SDS011;47337;54.068;12.114;2023-04-06T05:30:47;26.52;;;14.45;;
61471;SDS011;47337;54.068;12.114;2023-04-06T05:33:15;27.00;;;14.88;;
61471;SDS011;47337;54.068;12.114;2023-04-06T05:35:43;35.53;;;15.63;;
61471;SDS011;47337;54.068;12.114;2023-04-06T05:38:08;23.08;;;13.07;;
61471;SDS011;47337;54.068;12.114;2023-04-06T05:40:36;24.95;;;11.63;;
61471;SDS011;47337;54.068;12.114;2023-04-06T05:43:03;18.42;;;10.07;;
61471;SDS011;47337;54.068;12.114;2023-04-06T05:45:29;14.95;;;8.90;;
61471;SDS011;47337;54.068;12.114;2023-04-06T05:47:55;13.57;;;8.80;;
61471;SDS011;47337;54.068;12.114;2023-04-06T05:50:20;14.65;;;9.40;;
61471;SDS011;47337;54.068;12.114;2023-04-06T05:52:46;15.18;;;8.93;;
61471;SDS011;47337;54.068;12.114;2023-04-06T05:55:11;13.00;;;8.40;;
61471;SDS011;47337;54.068;12.114;2023-04-06T05:57:37;13.90;;;8.50;;
61471;SDS011;47337;54.068;12.114;2023-04-06T06:00:03;14.50;;;8.70;;
61471;SDS011;47337;54.068;12.114;2023-04-06T06:02:32;16.30;;;8.48;;
61471;SDS011;47337;54.068;12.114;2023-04-06T06:04:57;15.13;;;8.73;;
61471;SDS011;47337;54.068;12.114;2023-04-06T06:07:23;15.13;;;8.10;;
61471;SDS011;47337;54.068;12.114;2023-04-06T06:09:48;14.43;;;8.38;;
61471;SDS011;47337;54.068;12.114;2023-04-06T06:12:14;16.27;;;8.75;;
61471;SDS011;47337;54.068;12.114;2023-04-06T06:14:40;13.55;;;7.43;;
61471;SDS011;47337;54.068;12.114;2023-04-06T06:17:05;14.82;;;8.05;;
61471;SDS011;47337;54.068;12.114;2023-04-06T06:19:31;12.93;;;7.65;;
61471;SDS011;47337;54.068;12.114;2023-04-06T06:21:56;14.23;;;8.02;;
61471;SDS011;47337;54.068;12.114;2023-04-06T06:24:21;15.82;;;7.45;;
61471;SDS011;47337;54.068;12.114;2023-04-06T06:26:47;14.32;;;8.35;;
61471;SDS011;47337;54.068;12.114;2023-04-06T06:29:13;11.15;;;7.47;;
61471;SDS011;47337;54.068;12.114;2023-04-06T06:31:39;13.05;;;7.60;;
61471;SDS011;47337;54.068;12.114;2023-04-06T06:34:05;13.50;;;7.72;;
61471;SDS011;47337;54.068;12.114;2023-04-06T06:36:31;13.20;;;7.95;;
61471;SDS011;47337;54.068;12.114;2023-04-06T06:39:00;15.45;;;7.70;;
61471;SDS011;47337;54.068;12.114;2023-04-06T06:41:28;12.60;;;7.88;;
61471;SDS011;47337;54.068;12.114;2023-04-06T06:43:56;12.30;;;7.50;;
61471;SDS011;47337;54.068;12.114;2023-04-06T06:46:24;11.45;;;7.22;;
61471;SDS011;47337;54.068;12.114;2023-04-06T06:48:50;11.10;;;7.35;;
61471;SDS011;47337;54.068;12.114;2023-04-06T06:51:15;14.75;;;7.80;;
61471;SDS011;47337;54.068;12.114;2023-04-06T06:53:41;14.60;;;7.43;;
61471;SDS011;47337;54.068;12.114;2023-04-06T06:56:06;9.70;;;6.97;;
61471;SDS011;47337;54.068;12.114;2023-04-06T06:58:32;11.68;;;6.93;;
61471;SDS011;47337;54.068;12.114;2023-04-06T07:00:57;13.75;;;7.05;;
61471;SDS011;47337;54.068;12.114;2023-04-06T07:03:24;11.38;;;7.28;;
61471;SDS011;47337;54.068;12.114;2023-04-06T07:05:50;12.40;;;7.20;;
61471;SDS011;47337;54.068;12.114;2023-04-06T07:08:21;12.05;;;7.10;;
61471;SDS011;47337;54.068;12.114;2023-04-06T07:10:48;11.35;;;6.93;;
61471;SDS011;47337;54.068;12.114;2023-04-06T07:13:16;10.50;;;6.93;;
61471;SDS011;47337;54.068;12.114;2023-04-06T07:15:47;10.52;;;6.53;;
61471;SDS011;47337;54.068;12.114;2023-04-06T07:18:17;13.70;;;7.30;;
61471;SDS011;47337;54.068;12.114;2023-04-06T07:20:44;8.75;;;6.13;;
61471;SDS011;47337;54.068;12.114;2023-04-06T07:23:09;10.93;;;7.63;;
61471;SDS011;47337;54.068;12.114;2023-04-06T07:25:37;11.00;;;7.15;;
61471;SDS011;47337;54.068;12.114;2023-04-06T07:28:03;9.45;;;6.60;;
61471;SDS011;47337;54.068;12.114;2023-04-06T07:30:29;11.10;;;6.47;;
61471;SDS011;47337;54.068;12.114;2023-04-06T07:32:55;11.32;;;6.90;;
61471;SDS011;47337;54.068;12.114;2023-04-06T07:35:21;12.95;;;7.22;;
61471;SDS011;47337;54.068;12.114;2023-04-06T07:37:48;11.27;;;6.88;;
61471;SDS011;47337;54.068;12.114;2023-04-06T07:40:13;10.52;;;6.95;;
61471;SDS011;47337;54.068;12.114;2023-04-06T07:42:38;9.20;;;6.63;;
61471;SDS011;47337;54.068;12.114;2023-04-06T07:45:07;10.73;;;6.70;;
61471;SDS011;47337;54.068;12.114;2023-04-06T07:47:32;9.30;;;6.53;;
61471;SDS011;47337;54.068;12.114;2023-04-06T07:50:00;10.20;;;6.93;;
61471;SDS011;47337;54.068;12.114;2023-04-06T07:52:31;12.13;;;6.20;;
61471;SDS011;47337;54.068;12.114;2023-04-06T07:54:57;10.63;;;6.85;;
61471;SDS011;47337;54.068;12.114;2023-04-06T07:57:23;10.40;;;7.00;;
61471;SDS011;47337;54.068;12.114;2023-04-06T07:59:48;11.50;;;7.30;;
61471;SDS011;47337;54.068;12.114;2023-04-06T08:02:14;10.15;;;7.00;;
61471;SDS011;47337;54.068;12.114;2023-04-06T08:04:40;12.82;;;7.85;;
61471;SDS011;47337;54.068;12.114;2023-04-06T08:07:05;12.38;;;7.28;;
61471;SDS011;47337;54.068;12.114;2023-04-06T08:09:33;11.40;;;7.07;;
61471;SDS011;47337;54.068;12.114;2023-04-06T08:11:58;11.32;;;6.82;;
61471;SDS011;47337;54.068;12.114;2023-04-06T08:14:26;10.98;;;6.95;;
61471;SDS011;47337;54.068;12.114;2023-04-06T08:16:52;13.32;;;7.25;;
61471;SDS011;47337;54.068;12.114;2023-04-06T08:19:20;12.73;;;7.38;;
61471;SDS011;47337;54.068;12.114;2023-04-06T08:21:46;14.57;;;7.57;;
61471;SDS011;47337;54.068;12.114;2023-04-06T08:24:12;12.52;;;7.38;;
61471;SDS011;47337;54.068;12.114;2023-04-06T08:26:38;14.32;;;7.90;;
61471;SDS011;47337;54.068;12.114;2023-04-06T08:29:06;12.02;;;7.22;;
61471;SDS011;47337;54.068;12.114;2023-04-06T08:31:33;13.20;;;7.10;;
61471;SDS011;47337;54.068;12.114;2023-04-06T08:33:58;10.23;;;6.75;;
61471;SDS011;47337;54.068;12.114;2023-04-06T08:36:24;11.63;;;7.45;;
61471;SDS011;47337;54.068;12.114;2023-04-06T08:38:52;12.23;;;7.47;;
61471;SDS011;47337;54.068;12.114;2023-04-06T08:41:20;12.68;;;6.82;;
61471;SDS011;47337;54.068;12.114;2023-04-06T08:43:47;11.52;;;7.20;;
61471;SDS011;47337;54.068;12.114;2023-04-06T08:46:18;11.50;;;6.43;;
61471;SDS011;47337;54.068;12.114;2023-04-06T08:48:44;10.25;;;6.55;;
61471;SDS011;47337;54.068;12.114;2023-04-06T08:51:11;10.75;;;6.88;;
61471;SDS011;47337;54.068;12.114;2023-04-06T08:53:37;9.75;;;5.53;;
61471;SDS011;47337;54.068;12.114;2023-04-06T08:56:03;9.57;;;6.00;;
61471;SDS011;47337;54.068;12.114;2023-04-06T08:58:32;10.52;;;6.60;;
61471;SDS011;47337;54.068;12.114;2023-04-06T09:01:00;9.98;;;5.95;;
61471;SDS011;47337;54.068;12.114;2023-04-06T09:03:30;8.07;;;5.32;;
61471;SDS011;47337;54.068;12.114;2023-04-06T09:05:56;7.85;;;5.65;;
61471;SDS011;47337;54.068;12.114;2023-04-06T09:08:24;9.25;;;5.40;;
61471;SDS011;47337;54.068;12.114;2023-04-06T09:10:49;7.70;;;5.97;;
61471;SDS011;47337;54.068;12.114;2023-04-06T09:13:16;10.27;;;6.25;;
61471;SDS011;47337;54.068;12.114;2023-04-06T09:15:45;7.75;;;5.63;;
61471;SDS011;47337;54.068;12.114;2023-04-06T09:18:10;10.07;;;6.18;;
61471;SDS011;47337;54.068;12.114;2023-04-06T09:20:35;9.93;;;6.22;;
61471;SDS011;47337;54.068;12.114;2023-04-06T09:23:01;11.52;;;5.78;;
61471;SDS011;47337;54.068;12.114;2023-04-06T09:25:26;8.40;;;5.28;;
61471;SDS011;47337;54.068;12.114;2023-04-06T09:28:02;8.32;;;5.28;;
61471;SDS011;47337;54.068;12.114;2023-04-06T09:32:57;6.72;;;5.00;;
61471;SDS011;47337;54.068;12.114;2023-04-06T09:35:26;9.25;;;4.60;;
61471;SDS011;47337;54.068;12.114;2023-04-06T09:37:56;12.50;;;4.68;;
61471;SDS011;47337;54.068;12.114;2023-04-06T09:40:22;8.55;;;4.70;;
61471;SDS011;47337;54.068;12.114;2023-04-06T09:42:49;7.35;;;4.07;;
61471;SDS011;47337;54.068;12.114;2023-04-06T09:45:18;7.88;;;4.47;;
61471;SDS011;47337;54.068;12.114;2023-04-06T09:47:44;7.50;;;4.57;;
61471;SDS011;47337;54.068;12.114;2023-04-06T09:50:11;6.25;;;4.53;;
61471;SDS011;47337;54.068;12.114;2023-04-06T09:52:56;6.60;;;3.95;;
61471;SDS011;47337;54.068;12.114;2023-04-06T09:55:30;5.93;;;3.28;;
61471;SDS011;47337;54.068;12.114;2023-04-06T09:58:07;5.35;;;3.38;;
61471;SDS011;47337;54.068;12.114;2023-04-06T10:00:56;3.67;;;2.60;;
61471;SDS011;47337;54.068;12.114;2023-04-06T10:06:05;4.90;;;3.17;;
61471;SDS011;47337;54.068;12.114;2023-04-06T10:08:36;5.75;;;3.65;;
61471;SDS011;47337;54.068;12.114;2023-04-06T10:11:06;5.68;;;3.60;;
61471;SDS011;47337;54.068;12.114;2023-04-06T10:13:35;5.00;;;2.85;;
61471;SDS011;47337;54.068;12.114;2023-04-06T10:16:00;5.07;;;3.15;;
61471;SDS011;47337;54.068;12.114;2023-04-06T10:18:27;3.42;;;2.72;;
61471;SDS011;47337;54.068;12.114;2023-04-06T10:20:57;4.78;;;2.90;;
61471;SDS011;47337;54.068;12.114;2023-04-06T10:23:35;3.70;;;2.58;;
61471;SDS011;47337;54.068;12.114;2023-04-06T10:26:11;4.13;;;2.95;;
61471;SDS011;47337;54.068;12.114;2023-04-06T10:28:42;3.63;;;2.70;;
61471;SDS011;47337;54.068;12.114;2023-04-06T10:31:09;3.45;;;2.50;;
61471;SDS011;47337;54.068;12.114;2023-04-06T10:33:35;6.70;;;2.83;;
61471;SDS011;47337;54.068;12.114;2023-04-06T10:38:57;3.08;;;2.50;;
61471;SDS011;47337;54.068;12.114;2023-04-06T10:41:24;3.35;;;2.33;;
61471;SDS011;47337;54.068;12.114;2023-04-06T10:44:00;3.17;;;2.10;;
61471;SDS011;47337;54.068;12.114;2023-04-06T10:46:27;3.13;;;2.22;;
61471;SDS011;47337;54.068;12.114;2023-04-06T10:48:54;4.03;;;2.78;;
61471;SDS011;47337;54.068;12.114;2023-04-06T10:51:23;4.45;;;2.92;;
61471;SDS011;47337;54.068;12.114;2023-04-06T10:53:53;3.67;;;2.25;;
61471;SDS011;47337;54.068;12.114;2023-04-06T10:56:23;3.35;;;2.47;;
61471;SDS011;47337;54.068;12.114;2023-04-06T10:58:53;3.55;;;2.30;;
61471;SDS011;47337;54.068;12.114;2023-04-06T11:01:23;4.63;;;2.17;;
61471;SDS011;47337;54.068;12.114;2023-04-06T11:03:51;3.30;;;2.20;;
61471;SDS011;47337;54.068;12.114;2023-04-06T11:06:28;2.35;;;2.08;;
61471;SDS011;47337;54.068;12.114;2023-04-06T11:08:56;3.28;;;2.50;;
61471;SDS011;47337;54.068;12.114;2023-04-06T11:11:23;4.57;;;2.45;;
61471;SDS011;47337;54.068;12.114;2023-04-06T11:16:25;2.60;;;1.98;;
61471;SDS011;47337;54.068;12.114;2023-04-06T11:18:58;4.47;;;2.70;;
61471;SDS011;47337;54.068;12.114;2023-04-06T11:24:09;3.85;;;2.55;;
61471;SDS011;47337;54.068;12.114;2023-04-06T11:26:45;4.75;;;2.65;;
61471;SDS011;47337;54.068;12.114;2023-04-06T11:29:20;3.90;;;2.88;;
61471;SDS011;47337;54.068;12.114;2023-04-06T11:31:49;2.90;;;2.40;;
61471;SDS011;47337;54.068;12.114;2023-04-06T11:34:16;5.70;;;2.75;;
61471;SDS011;47337;54.068;12.114;2023-04-06T11:36:46;3.30;;;3.00;;
61471;SDS011;47337;54.068;12.114;2023-04-06T11:39:18;3.83;;;2.55;;
61471;SDS011;47337;54.068;12.114;2023-04-06T11:41:48;4.57;;;2.80;;
61471;SDS011;47337;54.068;12.114;2023-04-06T11:44:32;5.70;;;3.08;;
61471;SDS011;47337;54.068;12.114;2023-04-06T11:47:04;3.75;;;3.17;;
61471;SDS011;47337;54.068;12.114;2023-04-06T11:49:32;6.57;;;3.10;;
61471;SDS011;47337;54.068;12.114;2023-04-06T11:52:01;9.63;;;3.88;;
61471;SDS011;47337;54.068;12.114;2023-04-06T11:54:37;6.90;;;3.78;;
61471;SDS011;47337;54.068;12.114;2023-04-06T11:57:05;4.57;;;3.50;;
61471;SDS011;47337;54.068;12.114;2023-04-06T11:59:33;5.28;;;3.72;;
61471;SDS011;47337;54.068;12.114;2023-04-06T12:02:00;4.28;;;3.60;;
61471;SDS011;47337;54.068;12.114;2023-04-06T12:04:26;3.80;;;3.05;;
61471;SDS011;47337;54.068;12.114;2023-04-06T12:06:52;4.70;;;3.47;;
61471;SDS011;47337;54.068;12.114;2023-04-06T12:09:19;7.68;;;5.28;;
61471;SDS011;47337;54.068;12.114;2023-04-06T12:11:50;29.50;;;18.85;;
61471;SDS011;47337;54.068;12.114;2023-04-06T12:14:15;16.00;;;9.68;;
61471;SDS011;47337;54.068;12.114;2023-04-06T12:16:41;4.43;;;3.30;;
61471;SDS011;47337;54.068;12.114;2023-04-06T12:19:07;4.70;;;3.50;;
61471;SDS011;47337;54.068;12.114;2023-04-06T12:21:35;5.10;;;2.95;;
61471;SDS011;47337;54.068;12.114;2023-04-06T12:24:03;4.70;;;3.42;;
61471;SDS011;47337;54.068;12.114;2023-04-06T12:26:29;5.32;;;3.22;;
61471;SDS011;47337;54.068;12.114;2023-04-06T12:28:55;5.43;;;3.22;;
61471;SDS011;47337;54.068;12.114;2023-04-06T12:31:21;5.18;;;3.25;;
61471;SDS011;47337;54.068;12.114;2023-04-06T12:33:50;5.32;;;3.00;;
61471;SDS011;47337;54.068;12.114;2023-04-06T12:36:19;6.03;;;3.53;;
61471;SDS011;47337;54.068;12.114;2023-04-06T12:38:48;4.78;;;3.28;;
61471;SDS011;47337;54.068;12.114;2023-04-06T12:41:14;3.97;;;3.00;;
61471;SDS011;47337;54.068;12.114;2023-04-06T12:43:42;7.13;;;2.92;;
61471;SDS011;47337;54.068;12.114;2023-04-06T12:46:09;4.55;;;2.47;;
61471;SDS011;47337;54.068;12.114;2023-04-06T12:48:37;5.15;;;3.15;;
61471;SDS011;47337;54.068;12.114;2023-04-06T12:51:05;4.00;;;2.80;;
61471;SDS011;47337;54.068;12.114;2023-04-06T12:53:31;3.15;;;2.70;;
61471;SDS011;47337;54.068;12.114;2023-04-06T12:55:58;3.83;;;2.80;;
61471;SDS011;47337;54.068;12.114;2023-04-06T12:58:24;3.20;;;2.53;;
61471;SDS011;47337;54.068;12.114;2023-04-06T13:00:51;3.67;;;2.47;;
61471;SDS011;47337;54.068;12.114;2023-04-06T13:03:17;5.40;;;3.17;;
61471;SDS011;47337;54.068;12.114;2023-04-06T13:05:44;5.00;;;2.65;;
61471;SDS011;47337;54.068;12.114;2023-04-06T13:08:10;4.00;;;2.35;;
61471;SDS011;47337;54.068;12.114;2023-04-06T13:10:36;3.20;;;2.45;;
61471;SDS011;47337;54.068;12.114;2023-04-06T13:13:02;3.83;;;2.58;;
61471;SDS011;47337;54.068;12.114;2023-04-06T13:15:27;5.53;;;2.83;;
61471;SDS011;47337;54.068;12.114;2023-04-06T13:17:53;4.18;;;2.50;;
61471;SDS011;47337;54.068;12.114;2023-04-06T13:20:18;2.95;;;2.15;;
61471;SDS011;47337;54.068;12.114;2023-04-06T13:22:44;4.13;;;2.45;;
61471;SDS011;47337;54.068;12.114;2023-04-06T13:25:09;2.90;;;2.13;;
61471;SDS011;47337;54.068;12.114;2023-04-06T13:27:35;5.22;;;2.70;;
61471;SDS011;47337;54.068;12.114;2023-04-06T13:30:01;3.33;;;2.03;;
61471;SDS011;47337;54.068;12.114;2023-04-06T13:32:28;4.18;;;2.28;;
61471;SDS011;47337;54.068;12.114;2023-04-06T13:34:56;3.58;;;2.47;;
61471;SDS011;47337;54.068;12.114;2023-04-06T13:37:22;3.72;;;2.50;;
61471;SDS011;47337;54.068;12.114;2023-04-06T13:39:50;2.60;;;2.00;;
61471;SDS011;47337;54.068;12.114;2023-04-06T13:42:15;4.03;;;2.58;;
61471;SDS011;47337;54.068;12.114;2023-04-06T13:44:41;3.13;;;2.28;;
61471;SDS011;47337;54.068;12.114;2023-04-06T13:47:06;5.75;;;2.80;;
61471;SDS011;47337;54.068;12.114;2023-04-06T13:49:32;4.35;;;2.42;;
61471;SDS011;47337;54.068;12.114;2023-04-06T13:51:57;5.35;;;2.90;;
61471;SDS011;47337;54.068;12.114;2023-04-06T13:54:23;3.85;;;2.58;;
61471;SDS011;47337;54.068;12.114;2023-04-06T13:56:48;3.33;;;3.03;;
61471;SDS011;47337;54.068;12.114;2023-04-06T13:59:14;3.88;;;2.88;;
61471;SDS011;47337;54.068;12.114;2023-04-06T14:01:41;3.03;;;2.33;;
61471;SDS011;47337;54.068;12.114;2023-04-06T14:04:09;5.18;;;2.78;;
61471;SDS011;47337;54.068;12.114;2023-04-06T14:06:37;3.88;;;2.35;;
61471;SDS011;47337;54.068;12.114;2023-04-06T14:09:02;3.33;;;2.17;;
61471;SDS011;47337;54.068;12.114;2023-04-06T14:11:31;2.80;;;2.20;;
61471;SDS011;47337;54.068;12.114;2023-04-06T14:13:56;5.90;;;2.33;;
61471;SDS011;47337;54.068;12.114;2023-04-06T14:16:23;3.20;;;2.10;;
61471;SDS011;47337;54.068;12.114;2023-04-06T14:18:48;3.53;;;2.30;;
61471;SDS011;47337;54.068;12.114;2023-04-06T14:21:17;3.38;;;2.15;;
61471;SDS011;47337;54.068;12.114;2023-04-06T14:23:43;3.72;;;2.22;;
61471;SDS011;47337;54.068;12.114;2023-04-06T14:26:08;2.97;;;2.20;;
61471;SDS011;47337;54.068;12.114;2023-04-06T14:28:36;3.95;;;2.50;;
61471;SDS011;47337;54.068;12.114;2023-04-06T14:31:10;3.95;;;2.17;;
61471;SDS011;47337;54.068;12.114;2023-04-06T14:33:41;2.38;;;1.92;;
61471;SDS011;47337;54.068;12.114;2023-04-06T14:36:09;3.83;;;2.13;;